My Meet Scores
McKenzie Bronder, Gymkhana Gymnastics Club and Dance Studio - MyMeetScores.com
Top100 | Top Teams | Upcoming Meets | Completed Meets | Latest | Add Scores | Help| Support | Bookmark and Share

McKenzie Bronder, Gymkhana Gymnastics Club and Dance Studio
Personal Bests
LevelVault BarsBeamFloorAA
39.4759.625 9.4009.47537.900
48.4759.225 9.2009.40035.700
58.8508.950 8.8259.00035.500
68.8258.525 9.0509.15035.025
Meet Scores
Date Meet Team Session Level Division Vault Bars Beam Floor AA
2020-02-21 Kinetic Classic Gymkhana Gymnastics Club and Dance Studio 01 6 Middle 8.475 49 8.400 37 9.050 32T 9.100 38 35.025 41T
2020-02-07 Harley Meet Womens - Midwest Twisters Gymkhana Gymnastics Club and Dance Studio O04 6 Jr B 8.800 9 7.950 13 8.325 12 9.075 10 34.150 13
2020-01-24 King Arthur Invitational Gymkhana Gymnastics Club and Dance Studio 2 6 SR 8.450 10 8.525 6 8.625 6T 9.000 9 34.600 7T
2020-01-10 St Jude Benefit Meet Gymkhana Gymnastics Club and Dance Studio 1B 6 Sr A 8.825 5 8.150 13T 8.875 8T 9.150 11 35.000 11
2019-03-22 Illinois Gymnastics State Championships The Gymnastics Shop 3 5 SR A 8.850 26 8.950 12 8.700 23T 9.000 23T 35.500 22T
2019-02-23 Kinetic Classic 2019 The Gymnastics Shop 1 5 Middle 8.400 13 8.275 13 8.675 10 8.300 15 33.650 13
2019-02-08 IGI Chicago Style 2019 The Gymnastics Shop 48 5 632 LaSalle L5 B 8.700 15 8.775 9 7.900 15 8.150 16 33.525 15
2019-01-18 2019 Bravo Classic The Gymnastics Shop 2A 5 Jr 8.025 27 8.250 21T 8.825 20T 8.950 16 34.050 22
2019-01-11 St Jude Benefit Meet The Gymnastics Shop 9A 5 Sr A 8.700 12T 8.350 8 7.975 13 9.000 6 34.025 9
2018-12-07 St. Nick Invite 2018 The Gymnastics Shop 1 5 SrA 8.375 16 7.850 15 8.025 18 8.100 18 32.350 16
2018-11-30 Ultimate Wish Classic The Gymnastics Shop 6 5 SR A 8.600 14T 7.700 15 8.300 9 8.150 13T 32.750 11
2018-03-08 Level 4 & 5 State The Gymnastics Shop All 4 Jr B 8.475 23T 9.225 8 8.850 21T 9.050 17 35.600 17
2018-02-23 Kinetic Classic The Gymnastics Shop 6 4 Older 8.350 69T 8.550 71 8.625 51 8.950 59T 34.475 73
2018-02-08 Nashville Nights 2018 The Gymnastics Shop B03 4 JrA 7.925 9 9.050 1T 8.550 8 9.050 3 34.575 6
2018-01-26 King Arthur Invitational The Gymnastics Shop 2 4 Jr C 8.000 12T 9.125 4 8.600 11T 8.875 10 34.600 9T
2017-12-08 St. Nick Invite The Gymnastics Shop 1 4 SrA 8.150 13T 9.050 5T 9.200 5 9.300 4 35.700 5
2017-12-01 Ultimate Wish Classic The Gymnastics Shop 10 4 Sr A 8.450 9 8.700 7 8.550 10T 9.400 4 35.100 7
2017-10-27 M&M's Pixie Dust Invitational The Gymnastics Shop 4 4 10 yrs. 8.150 7T 8.275 15 8.625 9 9.000 3 34.050 9
2017-03-30 2017 Illinois Level 3 & 5 State The Gymnastics Shop All 3 Jr C 9.450 12 9.350 12 9.350 4 9.300 10 37.450 6
2017-02-17 Big Classic The Gymnastics Shop B 3 Child C 9.475 5T 9.625 5 9.325 3 9.475 7 37.900 3
2017-01-27 2017 UGA Invitational The Gymnastics Shop B8 3 Sr B 9.000 4T 8.950 5 9.400 3 9.300 7T 36.650 4
2017-01-13 Legacy Elite Winter Classic The Gymnastics Shop B2 3 Jr 9.350 2 9.350 3 9.050 4 9.400 3 37.150 2
2016-12-15 2016 Hawaiian Pineapple Sanction The Gymnastics Shop 2A 3 Age 9 9.175 11T 9.325 5 8.900 5T 9.375 1 36.775 4
2016-12-02 Ultimate Wish Classic The Gymnastics Shop 11 3 Sr A 8.825 11 9.450 2 9.125 3 9.250 5 36.650 1
Get your scores on
a t-shirt, pin, or hoodie

www.lazysuits.com